createdAt,value
2023-03-21T00:01:47.536Z,60.55
2023-03-21T00:04:17.137Z,60.28
2023-03-21T00:06:46.749Z,60.98
2023-03-21T00:09:16.071Z,57.60
2023-03-21T00:11:46.448Z,62.05
2023-03-21T00:14:18.175Z,65.12
2023-03-21T00:16:52.443Z,62.50
2023-03-21T00:19:23.938Z,59.50
2023-03-21T00:22:07.104Z,63.73
2023-03-21T00:24:26.954Z,60.15
2023-03-21T00:27:21.968Z,55.65
2023-03-21T00:29:31.286Z,61.65
2023-03-21T00:32:00.744Z,61.20
2023-03-21T00:34:42.738Z,59.93
2023-03-21T00:37:01.809Z,57.27
2023-03-21T00:39:32.205Z,62.33
2023-03-21T00:42:01.793Z,61.77
2023-03-21T00:44:33.042Z,63.95
2023-03-21T00:47:07.581Z,63.70
2023-03-21T00:49:37.702Z,63.55
2023-03-21T00:52:27.333Z,63.58
2023-03-21T00:54:42.584Z,71.45
2023-03-21T00:57:11.838Z,65.70
2023-03-21T00:59:41.053Z,67.05
2023-03-21T01:02:13.500Z,67.40
2023-03-21T01:04:43.127Z,73.75
2023-03-21T01:07:12.377Z,69.75
2023-03-21T01:09:41.760Z,62.58
2023-03-21T01:12:11.094Z,67.67
2023-03-21T01:14:40.484Z,70.55
2023-03-21T01:17:10.098Z,64.45
2023-03-21T01:19:51.242Z,64.47
2023-03-21T01:22:10.618Z,68.07
2023-03-21T01:24:50.217Z,69.20
2023-03-21T01:27:11.175Z,65.92
2023-03-21T01:29:40.693Z,64.10
2023-03-21T01:32:09.929Z,64.03
2023-03-21T01:34:39.494Z,65.60
2023-03-21T01:37:08.908Z,60.30
2023-03-21T01:39:40.029Z,58.68
2023-03-21T01:42:12.423Z,60.23
2023-03-21T01:47:31.454Z,58.05
2023-03-21T01:50:20.614Z,61.50
2023-03-21T01:52:51.946Z,51.92
2023-03-21T01:55:23.111Z,54.33
2023-03-21T01:58:09.401Z,51.92
2023-03-21T02:00:55.132Z,49.13
2023-03-21T02:03:35.650Z,50.25
2023-03-21T02:06:10.625Z,48.08
2023-03-21T02:08:41.481Z,47.53
2023-03-21T02:11:12.822Z,50.38
2023-03-21T02:13:43.865Z,49.38
2023-03-21T02:16:36.712Z,48.02
2023-03-21T02:19:20.128Z,49.27
2023-03-21T02:21:54.408Z,43.38
2023-03-21T02:24:28.296Z,45.85
2023-03-21T02:27:19.562Z,51.92
2023-03-21T02:30:17.425Z,54.53
2023-03-21T02:33:22.043Z,45.83
2023-03-21T02:36:14.900Z,43.63
2023-03-21T02:38:51.166Z,46.70
2023-03-21T02:41:40.115Z,51.45
2023-03-21T02:44:15.607Z,40.43
2023-03-21T02:47:15.328Z,45.40
2023-03-21T02:50:15.819Z,46.85
2023-03-21T02:52:47.459Z,48.80
2023-03-21T02:55:22.845Z,43.52
2023-03-21T02:57:56.415Z,39.30
2023-03-21T03:00:29.865Z,44.00
2023-03-21T03:03:09.632Z,45.60
2023-03-21T03:05:34.904Z,45.60
2023-03-21T03:08:38.379Z,42.78
2023-03-21T03:11:19.662Z,38.20
2023-03-21T03:13:54.950Z,42.25
2023-03-21T03:16:42.622Z,45.83
2023-03-21T03:19:15.072Z,40.40
2023-03-21T03:21:59.541Z,42.38
2023-03-21T03:24:41.435Z,42.25
2023-03-21T03:27:19.789Z,36.55
2023-03-21T03:29:50.400Z,36.95
2023-03-21T03:32:25.585Z,35.23
2023-03-21T03:34:57.114Z,33.55
2023-03-21T03:37:34.190Z,35.50
2023-03-21T03:40:21.728Z,33.95
2023-03-21T03:42:54.787Z,34.75
2023-03-21T03:45:28.958Z,28.57
2023-03-21T03:50:39.256Z,29.80
2023-03-21T03:53:19.491Z,30.02
2023-03-21T03:55:51.302Z,32.17
2023-03-21T03:58:27.397Z,27.40
2023-03-21T04:00:59.378Z,27.50
2023-03-21T04:03:32.422Z,31.10
2023-03-21T04:06:00.250Z,29.98
2023-03-21T04:08:30.174Z,29.70
2023-03-21T04:10:59.683Z,24.35
2023-03-21T04:13:29.556Z,31.90
2023-03-21T04:16:11.857Z,25.52
2023-03-21T04:18:42.049Z,29.23
2023-03-21T04:21:13.018Z,30.05
2023-03-21T04:23:43.177Z,25.50
2023-03-21T04:26:12.941Z,28.02
2023-03-21T04:28:46.823Z,24.30
2023-03-21T04:31:27.307Z,28.02
2023-03-21T04:34:08.083Z,23.15
2023-03-21T04:36:47.945Z,25.45
2023-03-21T04:39:18.521Z,26.12
2023-03-21T04:41:50.050Z,25.95
2023-03-21T04:44:20.950Z,24.92
2023-03-21T04:46:50.840Z,23.98
2023-03-21T04:49:21.311Z,23.62
2023-03-21T04:51:51.140Z,26.45
2023-03-21T04:54:21.183Z,26.52
2023-03-21T04:56:52.193Z,27.00
2023-03-21T04:59:21.850Z,26.80
2023-03-21T05:01:52.646Z,24.32
2023-03-21T05:04:22.516Z,23.35
2023-03-21T05:06:51.844Z,25.88
2023-03-21T05:09:22.310Z,28.47
2023-03-21T05:11:52.294Z,24.50
2023-03-21T05:14:25.320Z,28.87
2023-03-21T05:16:56.534Z,23.98
2023-03-21T05:19:32.908Z,26.60
2023-03-21T05:22:05.495Z,23.98
2023-03-21T05:24:34.793Z,24.55
2023-03-21T05:27:04.107Z,26.45
2023-03-21T05:29:35.111Z,23.15
2023-03-21T05:32:06.453Z,23.42
2023-03-21T05:34:35.698Z,25.05
2023-03-21T05:37:04.969Z,21.95
2023-03-21T05:39:38.676Z,21.52
2023-03-21T05:42:12.582Z,25.15
2023-03-21T05:44:42.654Z,24.37
2023-03-21T05:47:13.590Z,24.47
2023-03-21T05:49:45.684Z,21.85
2023-03-21T05:52:15.369Z,24.27
2023-03-21T05:54:46.832Z,21.40
2023-03-21T05:57:18.042Z,23.62
2023-03-21T05:59:52.203Z,23.50
2023-03-21T06:02:22.057Z,25.82
2023-03-21T06:04:51.870Z,21.77
2023-03-21T06:07:23.275Z,21.23
2023-03-21T06:09:52.993Z,19.48
2023-03-21T06:12:23.160Z,23.70
2023-03-21T06:14:56.986Z,18.20
2023-03-21T06:17:28.155Z,24.15
2023-03-21T06:20:01.872Z,23.22
2023-03-21T06:22:34.021Z,21.37
2023-03-21T06:25:04.157Z,24.23
2023-03-21T06:27:33.501Z,18.52
2023-03-21T06:30:02.970Z,20.85
2023-03-21T06:32:34.291Z,20.57
2023-03-21T06:35:05.651Z,21.25
2023-03-21T06:37:35.292Z,22.50
2023-03-21T06:40:06.142Z,24.05
2023-03-21T06:42:36.066Z,16.97
2023-03-21T06:45:07.751Z,20.55
2023-03-21T06:47:36.974Z,22.05
2023-03-21T06:50:09.372Z,22.27
2023-03-21T06:52:40.337Z,26.48
2023-03-21T06:55:10.389Z,20.12
2023-03-21T06:57:39.615Z,22.27
2023-03-21T07:00:11.187Z,26.73
2023-03-21T07:02:42.398Z,20.60
2023-03-21T07:05:13.605Z,21.48
2023-03-21T07:07:44.347Z,21.23
2023-03-21T07:10:13.670Z,18.42
2023-03-21T07:12:44.840Z,21.15
2023-03-21T07:15:15.836Z,21.93
2023-03-21T07:17:46.021Z,23.22
2023-03-21T07:20:15.255Z,23.83
2023-03-21T07:22:44.817Z,28.40
2023-03-21T07:25:14.323Z,24.57
2023-03-21T07:27:44.566Z,22.02
2023-03-21T07:30:14.352Z,25.88
2023-03-21T07:32:45.301Z,26.00
2023-03-21T07:35:17.067Z,21.37
2023-03-21T07:37:46.579Z,27.70
2023-03-21T07:40:17.981Z,22.98
2023-03-21T07:42:50.908Z,23.10
2023-03-21T07:45:23.708Z,25.35
2023-03-21T07:47:53.397Z,31.40
2023-03-21T07:50:22.985Z,25.32
2023-03-21T07:52:52.543Z,22.25
2023-03-21T07:55:22.293Z,25.05
2023-03-21T07:57:51.860Z,24.07
2023-03-21T08:00:25.131Z,26.27
2023-03-21T08:02:58.676Z,27.00
2023-03-21T08:05:30.099Z,24.70
2023-03-21T08:07:59.296Z,26.73
2023-03-21T08:10:29.574Z,25.10
2023-03-21T08:12:59.186Z,28.05
2023-03-21T08:15:28.732Z,24.75
2023-03-21T08:18:00.317Z,25.35
2023-03-21T08:20:29.537Z,24.75
2023-03-21T08:22:58.792Z,29.57
2023-03-21T08:25:28.010Z,30.95
2023-03-21T08:27:57.903Z,27.45
2023-03-21T08:30:29.063Z,27.22
2023-03-21T08:33:01.556Z,27.90
2023-03-21T08:35:31.710Z,23.38
2023-03-21T08:38:02.767Z,27.27
2023-03-21T08:40:32.113Z,27.22
2023-03-21T08:43:01.905Z,25.68
2023-03-21T08:45:31.447Z,25.77
2023-03-21T08:48:02.448Z,25.00
2023-03-21T08:50:32.315Z,20.50
2023-03-21T08:53:01.552Z,21.48
2023-03-21T08:55:32.469Z,21.42
2023-03-21T08:58:03.972Z,21.37
2023-03-21T09:00:33.348Z,18.85
2023-03-21T09:03:04.226Z,16.75
2023-03-21T09:05:33.678Z,17.57
2023-03-21T09:08:05.541Z,20.23
2023-03-21T09:10:34.968Z,22.62
2023-03-21T09:13:04.332Z,18.98
2023-03-21T09:15:35.452Z,20.75
2023-03-21T09:18:06.477Z,19.20
2023-03-21T09:20:37.329Z,15.32
2023-03-21T09:23:06.647Z,20.20
2023-03-21T09:25:36.864Z,17.92
2023-03-21T09:28:07.410Z,18.12
2023-03-21T09:30:37.939Z,17.23
2023-03-21T09:33:09.010Z,16.75
2023-03-21T09:35:39.232Z,17.98
2023-03-21T09:38:09.134Z,18.75
2023-03-21T09:40:56.551Z,18.20
2023-03-21T09:43:41.414Z,18.17
2023-03-21T09:46:16.513Z,16.87
2023-03-21T09:48:57.000Z,14.85
2023-03-21T09:51:23.680Z,18.17
2023-03-21T09:53:57.039Z,15.45
2023-03-21T09:56:26.526Z,13.95
2023-03-21T09:58:59.787Z,19.10
2023-03-21T10:01:34.673Z,13.65
2023-03-21T10:04:06.733Z,16.95
2023-03-21T10:06:39.665Z,12.45
2023-03-21T10:09:24.980Z,14.55
2023-03-21T10:11:57.382Z,16.02
2023-03-21T10:14:36.335Z,14.55
2023-03-21T10:17:21.484Z,15.45
2023-03-21T10:19:54.596Z,16.32
2023-03-21T10:22:23.826Z,14.93
2023-03-21T10:24:53.192Z,16.57
2023-03-21T10:27:22.439Z,13.65
2023-03-21T10:29:53.386Z,17.20
2023-03-21T10:32:22.906Z,13.88
2023-03-21T10:37:26.888Z,13.05
2023-03-21T10:39:58.187Z,14.07
2023-03-21T10:42:31.430Z,14.60
2023-03-21T10:45:01.285Z,10.55
2023-03-21T10:47:35.160Z,14.58
2023-03-21T10:50:09.341Z,14.70
2023-03-21T10:52:41.223Z,15.95
2023-03-21T10:55:13.938Z,15.55
2023-03-21T10:57:43.235Z,14.00
2023-03-21T11:00:17.064Z,15.32
2023-03-21T11:02:49.583Z,13.25
2023-03-21T11:07:59.711Z,15.35
2023-03-21T11:10:32.721Z,14.65
2023-03-21T11:13:11.106Z,14.13
2023-03-21T11:15:52.125Z,13.13
2023-03-21T11:18:24.117Z,12.55
2023-03-21T11:21:02.555Z,13.80
2023-03-21T11:23:34.230Z,12.13
2023-03-21T11:26:05.488Z,15.40
2023-03-21T11:28:42.246Z,15.30
2023-03-21T11:31:12.183Z,14.33
2023-03-21T11:33:45.384Z,15.98
2023-03-21T11:36:24.204Z,14.80
2023-03-21T11:39:13.912Z,19.05
2023-03-21T11:41:44.030Z,15.23
2023-03-21T11:44:31.145Z,11.28
2023-03-21T11:47:01.116Z,10.95
2023-03-21T11:49:30.942Z,14.35
2023-03-21T11:52:06.649Z,15.08
2023-03-21T11:54:39.147Z,13.03
2023-03-21T11:57:23.778Z,10.28
2023-03-21T12:00:01.952Z,14.40
2023-03-21T12:03:02.891Z,11.63
2023-03-21T12:05:44.452Z,12.68
2023-03-21T12:08:52.220Z,13.53
2023-03-21T12:11:42.457Z,13.53
2023-03-21T12:14:23.778Z,12.63
2023-03-21T12:17:13.231Z,14.38
2023-03-21T12:20:04.230Z,11.50
2023-03-21T12:22:39.620Z,12.05
2023-03-21T12:25:33.408Z,13.22
2023-03-21T12:28:08.703Z,13.58
2023-03-21T12:31:00.868Z,11.63
2023-03-21T12:33:45.176Z,10.30
2023-03-21T12:36:23.325Z,14.38
2023-03-21T12:39:19.932Z,13.62
2023-03-21T12:41:52.914Z,12.68
2023-03-21T12:44:23.607Z,18.42
2023-03-21T12:47:05.034Z,14.93
2023-03-21T12:49:40.390Z,14.33
2023-03-21T12:52:15.652Z,18.25
2023-03-21T12:54:59.966Z,16.65
2023-03-21T12:57:32.649Z,14.75
2023-03-21T13:00:12.434Z,14.23
2023-03-21T13:03:05.273Z,12.82
2023-03-21T13:05:53.193Z,14.60
2023-03-21T13:08:31.714Z,15.50
2023-03-21T13:11:02.384Z,12.80
2023-03-21T13:13:37.537Z,17.90
2023-03-21T13:16:10.010Z,19.23
2023-03-21T13:19:14.687Z,17.65
2023-03-21T13:21:50.014Z,14.10
2023-03-21T13:24:28.641Z,11.20
2023-03-21T13:27:04.270Z,15.35
2023-03-21T13:29:53.374Z,15.48
2023-03-21T13:32:40.064Z,13.30
2023-03-21T13:35:29.010Z,12.47
2023-03-21T13:38:09.218Z,11.95
2023-03-21T13:40:53.079Z,10.78
2023-03-21T13:43:36.852Z,10.50
2023-03-21T13:46:14.918Z,10.93
2023-03-21T13:49:01.012Z,13.48
2023-03-21T13:51:39.606Z,11.60
2023-03-21T13:54:17.978Z,15.40
2023-03-21T13:56:52.945Z,13.20
2023-03-21T13:59:40.835Z,12.35
2023-03-21T14:02:25.197Z,11.03
2023-03-21T14:05:05.444Z,10.13
2023-03-21T14:07:31.166Z,13.50
2023-03-21T14:10:09.901Z,14.03
2023-03-21T14:12:41.839Z,13.32
2023-03-21T14:15:22.856Z,14.20
2023-03-21T14:18:06.430Z,13.08
2023-03-21T14:20:36.517Z,10.85
2023-03-21T14:23:11.899Z,13.38
2023-03-21T14:25:47.599Z,15.18
2023-03-21T14:28:19.785Z,17.90
2023-03-21T14:30:55.188Z,14.58
2023-03-21T14:33:33.234Z,14.93
2023-03-21T14:36:06.473Z,13.25
2023-03-21T14:38:38.032Z,15.85
2023-03-21T14:41:09.498Z,13.25
2023-03-21T14:43:39.376Z,13.60
2023-03-21T14:46:10.337Z,14.30
2023-03-21T14:48:40.143Z,15.30
2023-03-21T14:51:12.275Z,13.78
2023-03-21T14:53:43.062Z,13.48
2023-03-21T14:56:21.296Z,15.28
2023-03-21T14:58:51.263Z,12.00
2023-03-21T15:01:29.724Z,10.78
2023-03-21T15:04:00.767Z,11.70
2023-03-21T15:06:30.001Z,14.93
2023-03-21T15:09:02.324Z,12.85
2023-03-21T15:11:37.475Z,15.32
2023-03-21T15:14:09.038Z,14.28
2023-03-21T15:16:39.192Z,13.40
2023-03-21T15:19:09.614Z,15.95
2023-03-21T15:21:44.246Z,17.05
2023-03-21T15:24:25.757Z,12.93
2023-03-21T15:27:01.341Z,11.00
2023-03-21T15:29:31.136Z,12.40
2023-03-21T15:32:01.434Z,14.13
2023-03-21T15:34:31.736Z,13.75
2023-03-21T15:37:06.285Z,15.78
2023-03-21T15:39:36.493Z,15.10
2023-03-21T15:42:08.990Z,15.55
2023-03-21T15:44:38.283Z,17.85
2023-03-21T15:47:09.594Z,17.55
2023-03-21T15:49:42.702Z,17.07
2023-03-21T15:52:16.818Z,23.60
2023-03-21T15:54:56.700Z,21.90
2023-03-21T15:57:32.576Z,18.25
2023-03-21T16:00:18.475Z,21.15
2023-03-21T16:02:47.176Z,15.78
2023-03-21T16:05:31.471Z,22.00
2023-03-21T16:08:20.771Z,16.17
2023-03-21T16:10:50.182Z,18.95
2023-03-21T16:13:19.566Z,17.80
2023-03-21T16:15:48.836Z,18.65
2023-03-21T16:18:18.068Z,18.62
2023-03-21T16:20:49.086Z,19.10
2023-03-21T16:23:18.351Z,17.60
2023-03-21T16:25:47.631Z,15.45
2023-03-21T16:28:18.487Z,15.83
2023-03-21T16:30:47.766Z,16.05
2023-03-21T16:33:17.338Z,19.75
2023-03-21T16:35:46.897Z,14.65
2023-03-21T16:38:16.282Z,13.15
2023-03-21T16:40:45.943Z,11.90
2023-03-21T16:43:15.611Z,14.90
2023-03-21T16:45:45.463Z,15.25
2023-03-21T16:48:16.974Z,11.90
2023-03-21T16:50:49.671Z,13.43
2023-03-21T16:55:48.102Z,12.60
2023-03-21T16:58:17.419Z,12.80
2023-03-21T17:00:47.296Z,13.58
2023-03-21T17:03:21.589Z,12.75
2023-03-21T17:05:51.089Z,12.10
2023-03-21T17:08:21.845Z,12.23
2023-03-21T17:10:51.332Z,14.58
2023-03-21T17:13:20.630Z,12.65
2023-03-21T17:15:49.996Z,14.78
2023-03-21T17:18:19.209Z,16.80
2023-03-21T17:20:48.478Z,14.80
2023-03-21T17:23:17.686Z,17.15
2023-03-21T17:25:47.263Z,17.25
2023-03-21T17:28:16.527Z,16.93
2023-03-21T17:30:46.109Z,14.70
2023-03-21T17:33:15.720Z,15.70
2023-03-21T17:35:45.383Z,15.83
2023-03-21T17:38:17.135Z,16.15
2023-03-21T17:40:46.554Z,16.67
2023-03-21T17:43:21.016Z,16.40
2023-03-21T17:45:50.436Z,21.10
2023-03-21T17:48:21.917Z,18.67
2023-03-21T17:50:51.230Z,17.12
2023-03-21T17:53:22.378Z,17.98
2023-03-21T17:55:51.638Z,18.27
2023-03-21T17:58:21.355Z,18.42
2023-03-21T18:00:50.845Z,19.37
2023-03-21T18:03:20.352Z,18.65
2023-03-21T18:05:49.583Z,23.73
2023-03-21T18:08:19.258Z,19.95
2023-03-21T18:10:49.021Z,19.25
2023-03-21T18:13:18.920Z,20.23
2023-03-21T18:15:49.887Z,18.67
2023-03-21T18:18:19.457Z,20.55
2023-03-21T18:20:52.638Z,19.52
2023-03-21T18:23:21.160Z,20.12
2023-03-21T18:25:53.003Z,18.87
2023-03-21T18:28:22.738Z,17.67
2023-03-21T18:31:08.238Z,20.10
2023-03-21T18:33:24.740Z,21.17
2023-03-21T18:35:59.013Z,20.95
2023-03-21T18:38:25.598Z,24.57
2023-03-21T18:40:55.220Z,21.27
2023-03-21T18:45:56.579Z,27.15
2023-03-21T18:48:26.269Z,23.22
2023-03-21T18:50:56.038Z,22.40
2023-03-21T18:53:25.573Z,22.93
2023-03-21T18:55:55.585Z,25.27
2023-03-21T18:58:25.496Z,25.05
2023-03-21T19:00:55.303Z,25.70
2023-03-21T19:03:35.725Z,25.05
2023-03-21T19:06:00.511Z,23.35
2023-03-21T19:08:30.652Z,24.92
2023-03-21T19:11:05.562Z,30.27
2023-03-21T19:13:31.248Z,24.87
2023-03-21T19:16:02.749Z,27.60
2023-03-21T19:18:53.527Z,28.93
2023-03-21T19:21:06.334Z,27.52
2023-03-21T19:24:11.648Z,32.80
2023-03-21T19:26:07.873Z,34.43
2023-03-21T19:28:37.434Z,29.12
2023-03-21T19:31:08.037Z,29.20
2023-03-21T19:33:37.880Z,31.55
2023-03-21T19:36:17.985Z,27.13
2023-03-21T19:38:39.152Z,27.22
2023-03-21T19:41:08.448Z,28.50
2023-03-21T19:43:40.131Z,29.52
2023-03-21T19:46:11.324Z,30.80
2023-03-21T19:48:43.523Z,24.32
2023-03-21T19:51:27.479Z,27.30
2023-03-21T19:53:44.391Z,42.03
2023-03-21T19:56:21.652Z,31.97
2023-03-21T19:58:47.245Z,34.35
2023-03-21T20:01:16.824Z,28.05
2023-03-21T20:03:46.563Z,23.62
2023-03-21T20:06:16.722Z,22.32
2023-03-21T20:11:17.989Z,22.48
2023-03-21T20:13:49.518Z,25.92
2023-03-21T20:16:20.429Z,26.17
2023-03-21T20:18:50.299Z,30.10
2023-03-21T20:21:25.345Z,28.57
2023-03-21T20:23:51.148Z,32.03
2023-03-21T20:26:21.389Z,32.17
2023-03-21T20:29:00.272Z,32.65
2023-03-21T20:31:24.202Z,38.00
2023-03-21T20:33:53.675Z,37.95
2023-03-21T20:36:38.821Z,28.83
2023-03-21T20:38:55.399Z,31.27
2023-03-21T20:41:24.929Z,26.05
2023-03-21T20:46:25.270Z,26.62
2023-03-21T20:48:54.934Z,22.98
2023-03-21T20:53:56.706Z,23.27
2023-03-21T20:56:25.946Z,25.68
2023-03-21T20:59:08.557Z,23.22
2023-03-21T21:01:26.801Z,21.50
2023-03-21T21:03:57.525Z,19.75
2023-03-21T21:06:28.632Z,21.68
2023-03-21T21:08:59.721Z,19.40
2023-03-21T21:14:00.100Z,20.40
2023-03-21T21:16:29.400Z,15.78
2023-03-21T21:18:59.405Z,14.28
2023-03-21T21:21:28.881Z,13.22
2023-03-21T21:23:58.502Z,15.78
2023-03-21T21:26:28.203Z,18.25
2023-03-21T21:28:59.037Z,13.95
2023-03-21T21:31:33.069Z,18.37
2023-03-21T21:34:04.010Z,18.60
2023-03-21T21:36:33.553Z,15.28
2023-03-21T21:39:02.754Z,29.07
2023-03-21T21:41:32.279Z,21.70
2023-03-21T21:44:01.620Z,19.42
2023-03-21T21:46:31.683Z,16.25
2023-03-21T21:49:02.030Z,19.62
2023-03-21T21:51:33.251Z,12.13
2023-03-21T21:54:06.438Z,13.88
2023-03-21T21:56:38.716Z,12.55
2023-03-21T21:59:11.273Z,11.70
2023-03-21T22:01:43.512Z,15.43
2023-03-21T22:04:14.896Z,11.83
2023-03-21T22:06:48.084Z,17.52
2023-03-21T22:09:24.733Z,13.90
2023-03-21T22:11:57.209Z,12.35
2023-03-21T22:14:33.267Z,13.15
2023-03-21T22:17:03.777Z,11.73
2023-03-21T22:19:40.200Z,13.58
2023-03-21T22:22:12.774Z,13.10
2023-03-21T22:24:42.484Z,14.03
2023-03-21T22:27:11.836Z,11.08
2023-03-21T22:29:41.227Z,13.03
2023-03-21T22:32:10.959Z,8.63
2023-03-21T22:34:40.266Z,11.75
2023-03-21T22:37:09.602Z,11.78
2023-03-21T22:39:39.104Z,14.50
2023-03-21T22:42:08.523Z,9.08
2023-03-21T22:44:37.793Z,9.88
2023-03-21T22:47:09.292Z,16.12
2023-03-21T22:49:39.342Z,11.40
2023-03-21T22:52:09.296Z,9.35
2023-03-21T22:54:38.848Z,10.05
2023-03-21T22:57:08.959Z,16.05
2023-03-21T22:59:38.532Z,12.82
2023-03-21T23:02:09.742Z,14.05
2023-03-21T23:04:39.550Z,10.63
2023-03-21T23:07:10.024Z,8.98
2023-03-21T23:09:39.693Z,10.08
2023-03-21T23:12:09.023Z,9.80
2023-03-21T23:14:38.548Z,12.50
2023-03-21T23:17:09.459Z,9.60
2023-03-21T23:19:41.097Z,15.08
2023-03-21T23:22:11.236Z,12.13
2023-03-21T23:24:41.053Z,13.60
2023-03-21T23:27:10.669Z,8.75
2023-03-21T23:29:40.161Z,10.50
2023-03-21T23:32:09.387Z,8.35
2023-03-21T23:34:38.631Z,10.55
2023-03-21T23:37:08.195Z,11.33
2023-03-21T23:39:37.984Z,9.23
2023-03-21T23:42:07.499Z,11.50
2023-03-21T23:44:37.061Z,10.95
2023-03-21T23:47:06.365Z,10.60
2023-03-21T23:49:37.234Z,11.63
2023-03-21T23:52:06.898Z,11.33
2023-03-21T23:54:36.496Z,11.85
2023-03-21T23:57:05.764Z,9.80
2023-03-21T23:59:35.272Z,7.95
